Time;durP1;ratioP1;P1;durP2;ratioP2;P2;SDS_P1;SDS_P2;PMS_P1;PMS_P2;Temp;Humidity;BMP_temperature;BMP_pressure;BME280_temperature;BME280_humidity;BME280_pressure;Samples;Min_cycle;Max_cycle;Signal;HPM_P1;HPM_P2
2022/11/20 00:00:14;;;;;;;3.53;1.50;;;11.70;73.10;;;;;;2348519;53;20985;-75
2022/11/20 00:02:40;;;;;;;5.05;1.65;;;11.70;73.10;;;;;;2342414;53;20917;-75
2022/11/20 00:05:09;;;;;;;2.83;1.37;;;11.70;73.10;;;;;;2588854;52;20976;-75
2022/11/20 00:07:35;;;;;;;3.08;1.50;;;11.70;73.00;;;;;;2341426;53;21463;-75
2022/11/20 00:10:02;;;;;;;2.47;1.23;;;11.70;73.10;;;;;;2342088;53;20949;-74
2022/11/20 00:12:28;;;;;;;4.20;1.60;;;11.70;73.00;;;;;;2342634;53;20937;-74
2022/11/20 00:14:55;;;;;;;2.58;1.25;;;11.70;73.00;;;;;;2344891;53;21469;-74
2022/11/20 00:17:22;;;;;;;3.20;1.70;;;11.70;73.00;;;;;;2607936;52;20959;-74
2022/11/20 00:19:49;;;;;;;2.70;1.48;;;11.70;72.90;;;;;;2371459;53;20938;-74
2022/11/20 00:22:15;;;;;;;3.70;1.60;;;11.70;72.90;;;;;;2371042;53;20911;-75
2022/11/20 00:24:45;;;;;;;3.70;1.65;;;11.70;72.80;;;;;;2371833;53;20915;-75
2022/11/20 00:27:11;;;;;;;5.47;1.87;;;11.60;72.60;;;;;;2623828;52;21054;-75
2022/11/20 00:29:38;;;;;;;3.55;1.90;;;11.70;72.80;;;;;;2371492;53;20926;-75
2022/11/20 00:32:05;;;;;;;4.97;2.17;;;11.60;72.70;;;;;;2371852;53;20971;-75
2022/11/20 00:34:32;;;;;;;3.67;2.10;;;11.60;72.80;;;;;;2371445;53;20938;-74
2022/11/20 00:37:00;;;;;;;3.83;2.20;;;11.60;72.80;;;;;;2371368;53;21025;-75
2022/11/20 00:39:26;;;;;;;4.05;2.25;;;11.60;72.70;;;;;;2371238;53;20970;-75
2022/11/20 00:41:53;;;;;;;4.65;2.65;;;11.70;72.90;;;;;;2469044;52;21006;-75
2022/11/20 00:44:20;;;;;;;4.20;2.42;;;11.60;72.80;;;;;;2357167;53;22072;-75
2022/11/20 00:46:47;;;;;;;4.80;2.12;;;11.60;72.80;;;;;;2371909;53;21387;-74
2022/11/20 00:49:13;;;;;;;3.87;1.95;;;11.60;72.80;;;;;;2371068;53;21397;-75
2022/11/20 00:51:40;;;;;;;3.75;2.12;;;11.60;72.80;;;;;;2623922;52;20978;-74
2022/11/20 00:54:06;;;;;;;3.43;1.83;;;11.60;72.90;;;;;;2348782;53;1336249;-74
2022/11/20 00:56:34;;;;;;;4.20;2.20;;;11.60;72.90;;;;;;2370974;53;20989;-74
2022/11/20 00:59:01;;;;;;;5.00;2.25;;;11.50;72.80;;;;;;2603718;52;21049;-74
2022/11/20 01:01:29;;;;;;;4.03;2.30;;;11.50;72.80;;;;;;2615510;52;21013;-77
2022/11/20 01:03:57;;;;;;;4.30;2.08;;;11.50;72.80;;;;;;2421588;52;21010;-75
2022/11/20 01:06:28;;;;;;;3.42;2.03;;;11.50;72.80;;;;;;2351495;53;21014;-77
2022/11/20 01:08:56;;;;;;;4.57;2.35;;;11.50;72.70;;;;;;2384865;52;20958;-78
2022/11/20 01:11:25;;;;;;;4.78;2.47;;;11.50;72.80;;;;;;2370912;53;20942;-75
2022/11/20 01:13:52;;;;;;;4.15;2.70;;;11.50;72.70;;;;;;2623851;52;20938;-75
2022/11/20 01:16:20;;;;;;;14.80;3.00;;;11.50;72.70;;;;;;2371295;53;21867;-76
2022/11/20 01:18:48;;;;;;;4.80;2.53;;;11.50;72.70;;;;;;2623846;52;20989;-75
2022/11/20 01:21:23;;;;;;;4.75;2.72;;;11.50;72.70;;;;;;2370942;53;20947;-79
2022/11/20 01:23:50;;;;;;;4.60;2.53;;;11.50;72.70;;;;;;2603217;52;20974;-73
2022/11/20 01:26:19;;;;;;;5.50;2.83;;;11.50;72.70;;;;;;2370976;53;20927;-74
2022/11/20 01:28:46;;;;;;;5.70;2.78;;;11.50;72.70;;;;;;2394930;52;20926;-78
2022/11/20 01:31:14;;;;;;;4.53;2.58;;;11.50;72.70;;;;;;2600354;52;21336;-76
2022/11/20 01:33:41;;;;;;;3.62;2.28;;;11.40;72.70;;;;;;2619132;52;20934;-74
2022/11/20 01:36:09;;;;;;;4.85;2.75;;;11.40;72.70;;;;;;2621556;52;20922;-78
2022/11/20 01:38:36;;;;;;;4.65;2.30;;;11.40;72.70;;;;;;2369928;53;20918;-78
2022/11/20 01:41:02;;;;;;;5.22;3.03;;;11.40;72.70;;;;;;2623963;52;20922;-75
2022/11/20 01:43:29;;;;;;;4.37;2.50;;;11.40;72.70;;;;;;2371581;53;20973;-78
2022/11/20 01:46:17;;;;;;;4.95;2.37;;;11.40;72.70;;;;;;2371564;53;20993;-75
2022/11/20 01:49:34;;;;;;;5.93;2.37;;;11.40;72.60;;;;;;2624347;52;21006;-76
2022/11/20 01:52:04;;;;;;;4.05;1.80;;;11.40;72.00;;;;;;2343970;53;20956;-77
2022/11/20 01:54:42;;;;;;;4.22;2.12;;;11.40;72.70;;;;;;2342736;53;21008;-78
2022/11/20 01:57:09;;;;;;;4.37;2.30;;;11.40;72.40;;;;;;2532628;52;20948;-75
2022/11/20 01:59:39;;;;;;;3.90;1.98;;;11.40;72.60;;;;;;2343394;53;20917;-75
2022/11/20 02:02:05;;;;;;;4.65;2.42;;;11.40;72.60;;;;;;2344088;53;21016;-74
2022/11/20 02:04:32;;;;;;;4.55;2.20;;;11.40;72.60;;;;;;2607608;52;21048;-75
2022/11/20 02:07:06;;;;;;;3.72;1.90;;;11.40;72.70;;;;;;2344503;53;20889;-79
2022/11/20 02:09:34;;;;;;;4.75;2.10;;;11.40;72.60;;;;;;2359852;53;21001;-76
2022/11/20 02:12:00;;;;;;;4.03;1.92;;;11.30;72.60;;;;;;2371261;53;20934;-77
2022/11/20 02:14:27;;;;;;;5.80;2.40;;;11.30;72.60;;;;;;2371104;53;20926;-77
2022/11/20 02:16:53;;;;;;;4.12;2.20;;;11.30;72.50;;;;;;2371725;53;20910;-77
2022/11/20 02:19:28;;;;;;;4.60;2.03;;;11.40;72.60;;;;;;2371020;53;21629;-78
2022/11/20 02:22:14;;;;;;;3.55;2.08;;;11.30;72.50;;;;;;2475498;52;21495;-75
2022/11/20 02:24:43;;;;;;;4.37;2.08;;;11.30;72.30;;;;;;2624161;52;21687;-74
2022/11/20 02:27:11;;;;;;;3.42;1.83;;;11.30;72.40;;;;;;2371130;53;21041;-76
2022/11/20 02:29:39;;;;;;;3.80;1.90;;;11.30;72.40;;;;;;2371167;53;20903;-80
2022/11/20 02:32:05;;;;;;;5.32;2.08;;;11.20;72.30;;;;;;2371473;53;21505;-76
2022/11/20 02:34:32;;;;;;;3.28;1.75;;;11.20;72.40;;;;;;2343889;53;21889;-74
2022/11/20 02:36:59;;;;;;;3.47;1.77;;;11.20;72.40;;;;;;2344028;53;20896;-77
2022/11/20 02:39:26;;;;;;;4.62;1.95;;;11.20;72.40;;;;;;2343499;53;20932;-74
2022/11/20 02:41:53;;;;;;;2.83;1.50;;;11.20;72.30;;;;;;2343811;53;21044;-75
2022/11/20 02:44:20;;;;;;;3.80;1.90;;;11.20;72.30;;;;;;2589498;52;20980;-75
2022/11/20 02:46:46;;;;;;;4.05;1.83;;;11.20;72.30;;;;;;2343413;53;21001;-77
2022/11/20 02:49:13;;;;;;;3.03;1.70;;;11.20;72.20;;;;;;2355932;53;20923;-77
2022/11/20 02:51:42;;;;;;;5.15;2.00;;;11.10;72.20;;;;;;2371336;53;20925;-77
2022/11/20 02:54:09;;;;;;;3.85;1.70;;;11.10;72.10;;;;;;2372034;53;20910;-75
2022/11/20 02:56:38;;;;;;;3.33;1.67;;;11.10;72.20;;;;;;2371446;53;21880;-78
2022/11/20 02:59:04;;;;;;;3.70;1.90;;;11.10;72.10;;;;;;2456602;52;20953;-78
2022/11/20 03:01:30;;;;;;;3.42;1.60;;;11.10;72.20;;;;;;2343390;53;21008;-75
2022/11/20 03:03:57;;;;;;;2.83;1.33;;;11.00;72.10;;;;;;2344165;53;20932;-78
2022/11/20 03:06:23;;;;;;;3.20;1.60;;;11.00;72.10;;;;;;2343727;53;21000;-79
2022/11/20 03:08:50;;;;;;;3.53;1.70;;;11.10;72.20;;;;;;2344030;53;20965;-77
2022/11/20 03:11:16;;;;;;;3.20;1.52;;;11.00;72.10;;;;;;2590416;52;21043;-76
2022/11/20 03:13:43;;;;;;;3.20;1.50;;;11.00;72.10;;;;;;2343813;53;21739;-77
2022/11/20 03:16:16;;;;;;;3.08;1.50;;;11.00;72.20;;;;;;2590614;52;20944;-75
2022/11/20 03:18:43;;;;;;;3.97;1.90;;;11.00;72.20;;;;;;2590349;52;21757;-74
2022/11/20 03:21:11;;;;;;;3.53;1.60;;;11.00;72.30;;;;;;2343671;53;20953;-80
2022/11/20 03:23:37;;;;;;;3.70;1.80;;;10.90;72.20;;;;;;2343445;53;20905;-75
2022/11/20 03:26:14;;;;;;;3.70;1.60;;;10.90;72.20;;;;;;2390467;53;21483;-76
2022/11/20 03:28:41;;;;;;;3.62;1.70;;;10.90;72.00;;;;;;2355152;53;21482;-75
2022/11/20 03:31:09;;;;;;;3.78;1.60;;;10.90;72.30;;;;;;2371767;53;20895;-75
2022/11/20 03:33:36;;;;;;;3.65;1.73;;;11.00;72.40;;;;;;2567992;53;21201;-77
2022/11/20 03:36:06;;;;;;;4.55;2.10;;;10.90;72.30;;;;;;2371368;53;21771;-74
2022/11/20 03:38:33;;;;;;;2.83;1.52;;;10.90;72.30;;;;;;2622821;52;20927;-77
2022/11/20 03:41:10;;;;;;;3.50;1.90;;;10.90;72.40;;;;;;2371398;53;21066;-78
2022/11/20 03:43:36;;;;;;;5.40;1.90;;;10.90;72.40;;;;;;2371215;53;21759;-74
2022/11/20 03:46:06;;;;;;;3.85;1.70;;;10.90;72.50;;;;;;2371650;53;21000;-76
2022/11/20 03:48:32;;;;;;;4.22;2.05;;;10.90;72.50;;;;;;2370922;53;20962;-75
2022/11/20 03:51:12;;;;;;;3.92;2.10;;;10.90;72.60;;;;;;2371831;53;20926;-74
2022/11/20 03:53:39;;;;;;;4.90;2.00;;;10.90;72.40;;;;;;2370130;53;20930;-77
2022/11/20 03:56:06;;;;;;;4.78;2.37;;;10.90;72.60;;;;;;2371334;53;21334;-77
2022/11/20 03:58:41;;;;;;;5.62;2.58;;;10.90;72.60;;;;;;2374931;52;20878;-74
2022/11/20 04:01:32;;;;;;;5.43;2.45;;;10.90;72.60;;;;;;2371449;53;20943;-75
2022/11/20 04:03:59;;;;;;;3.80;2.00;;;10.90;72.20;;;;;;2371377;53;20963;-79
2022/11/20 04:06:27;;;;;;;4.47;2.15;;;10.90;72.60;;;;;;2386927;52;20946;-79
2022/11/20 04:08:57;;;;;;;4.95;2.53;;;10.90;72.60;;;;;;2370450;53;20921;-73
2022/11/20 04:11:26;;;;;;;4.00;2.42;;;10.90;72.60;;;;;;2367852;53;20922;-78
2022/11/20 04:14:29;;;;;;;4.28;2.40;;;10.90;72.80;;;;;;2371086;53;20918;-75
2022/11/20 04:16:55;;;;;;;4.75;2.42;;;10.90;72.30;;;;;;2371200;53;20978;-76
2022/11/20 04:19:24;;;;;;;6.43;2.47;;;10.90;72.90;;;;;;2370890;53;20963;-78
2022/11/20 04:21:51;;;;;;;4.53;2.75;;;10.90;72.90;;;;;;2371118;53;20898;-75
2022/11/20 04:24:17;;;;;;;4.55;2.67;;;10.90;72.90;;;;;;2370697;53;20922;-77
2022/11/20 04:26:43;;;;;;;3.85;2.47;;;10.90;73.00;;;;;;2420745;52;20952;-76
2022/11/20 04:29:11;;;;;;;4.72;2.65;;;10.90;73.00;;;;;;2367338;53;20926;-75
2022/11/20 04:31:37;;;;;;;4.47;2.70;;;10.90;73.00;;;;;;2370464;53;20990;-79
2022/11/20 04:34:05;;;;;;;4.37;2.55;;;10.90;73.30;;;;;;2371382;53;20938;-79
2022/11/20 04:36:31;;;;;;;4.95;2.70;;;10.90;72.90;;;;;;2371339;53;21017;-76
2022/11/20 04:38:59;;;;;;;5.53;3.05;;;10.90;72.90;;;;;;2371226;53;20982;-75
2022/11/20 04:41:30;;;;;;;5.35;2.75;;;10.90;72.90;;;;;;2623479;52;20917;-77
2022/11/20 04:44:01;;;;;;;5.03;2.30;;;10.90;72.90;;;;;;2372326;53;20966;-77
2022/11/20 04:46:27;;;;;;;4.62;2.47;;;10.90;72.90;;;;;;2417180;52;20930;-76
2022/11/20 04:48:53;;;;;;;6.87;2.78;;;10.90;72.90;;;;;;2371787;53;20919;-77
2022/11/20 04:51:26;;;;;;;4.68;2.33;;;10.90;72.90;;;;;;2371043;53;21045;-73
2022/11/20 04:53:53;;;;;;;4.05;2.22;;;11.00;72.90;;;;;;2370901;53;20954;-78
2022/11/20 04:56:19;;;;;;;5.85;2.50;;;11.00;73.00;;;;;;2371260;53;20942;-78
2022/11/20 04:58:46;;;;;;;3.50;2.17;;;11.00;73.10;;;;;;2371190;53;20926;-74
2022/11/20 05:01:20;;;;;;;4.35;2.28;;;10.90;72.90;;;;;;2370704;53;20919;-76
2022/11/20 05:03:46;;;;;;;4.20;2.40;;;10.90;72.90;;;;;;2446797;52;21006;-77
2022/11/20 05:06:14;;;;;;;5.30;2.53;;;11.00;73.00;;;;;;2371035;53;20926;-76
2022/11/20 05:08:41;;;;;;;3.97;2.20;;;10.90;72.90;;;;;;2371333;53;20875;-78
2022/11/20 05:11:11;;;;;;;6.12;2.33;;;10.90;72.90;;;;;;2371557;53;20941;-74
2022/11/20 05:13:39;;;;;;;4.75;2.60;;;10.90;73.00;;;;;;2618092;52;20998;-78
2022/11/20 05:16:10;;;;;;;3.72;2.20;;;11.00;73.10;;;;;;2375121;52;20941;-75
2022/11/20 05:18:36;;;;;;;4.32;2.25;;;11.00;73.00;;;;;;2369002;53;20920;-75
2022/11/20 05:21:03;;;;;;;4.18;2.50;;;11.00;73.10;;;;;;2360705;54;20946;-75
2022/11/20 05:23:30;;;;;;;4.32;2.45;;;11.00;73.10;;;;;;2370848;53;21005;-74
2022/11/20 05:25:56;;;;;;;4.35;2.72;;;11.00;73.10;;;;;;2389522;52;21062;-77
2022/11/20 05:28:24;;;;;;;4.30;2.40;;;11.00;73.10;;;;;;2371225;53;21368;-77
2022/11/20 05:30:54;;;;;;;3.70;2.10;;;11.00;73.00;;;;;;2371264;53;20962;-77
2022/11/20 05:33:21;;;;;;;4.95;2.40;;;11.00;73.00;;;;;;2373707;52;20946;-74
2022/11/20 05:35:50;;;;;;;3.78;1.87;;;11.00;73.10;;;;;;2557091;52;20925;-76
2022/11/20 05:38:16;;;;;;;4.55;1.90;;;11.00;73.10;;;;;;2378166;52;20934;-78
2022/11/20 05:40:45;;;;;;;6.82;3.10;;;11.00;73.10;;;;;;2371025;53;20894;-77
2022/11/20 05:43:14;;;;;;;3.67;2.03;;;11.00;73.10;;;;;;2371240;53;20918;-77
2022/11/20 05:45:40;;;;;;;4.30;2.28;;;11.00;73.10;;;;;;2374985;53;20959;-77
2022/11/20 05:48:07;;;;;;;4.00;2.47;;;11.00;73.10;;;;;;2371153;53;20978;-78
2022/11/20 05:50:34;;;;;;;4.07;1.98;;;11.00;73.10;;;;;;2371201;53;20910;-76
2022/11/20 05:53:00;;;;;;;3.95;2.08;;;11.00;73.10;;;;;;2374826;53;20934;-74
2022/11/20 05:55:27;;;;;;;4.20;1.90;;;11.00;73.10;;;;;;2446917;53;21279;-75
2022/11/20 05:57:54;;;;;;;3.65;1.85;;;11.00;73.10;;;;;;2624033;52;20950;-74
2022/11/20 06:00:21;;;;;;;4.00;2.00;;;11.00;72.90;;;;;;2510183;52;21664;-75
2022/11/20 06:02:52;;;;;;;4.12;2.03;;;11.00;73.00;;;;;;2623910;52;20938;-75
2022/11/20 06:05:19;;;;;;;3.85;2.05;;;11.00;72.90;;;;;;2623620;52;21387;-77
2022/11/20 06:07:45;;;;;;;3.70;1.73;;;11.00;72.90;;;;;;2371033;53;21744;-74
2022/11/20 06:10:12;;;;;;;3.85;1.77;;;11.00;72.90;;;;;;2370430;53;20906;-76
2022/11/20 06:12:39;;;;;;;3.58;2.15;;;11.00;72.90;;;;;;2367093;53;21080;-76
2022/11/20 06:15:06;;;;;;;3.40;1.80;;;11.10;73.00;;;;;;2370261;53;20926;-76
2022/11/20 06:17:32;;;;;;;2.87;1.60;;;11.00;72.90;;;;;;2370272;53;21002;-77
2022/11/20 06:19:58;;;;;;;4.80;1.42;;;11.00;72.90;;;;;;2370499;53;21022;-78
2022/11/20 06:22:25;;;;;;;3.37;1.65;;;11.00;72.90;;;;;;2370545;53;21305;-74
2022/11/20 06:24:51;;;;;;;5.22;2.20;;;11.00;72.80;;;;;;2370743;53;20962;-78
2022/11/20 06:27:18;;;;;;;2.83;1.50;;;11.00;72.80;;;;;;2621884;52;20966;-75
2022/11/20 06:29:44;;;;;;;3.58;1.80;;;11.00;72.80;;;;;;2370033;53;20909;-75
2022/11/20 06:32:11;;;;;;;3.10;1.60;;;11.00;72.80;;;;;;2366459;53;20926;-76
2022/11/20 06:34:37;;;;;;;2.62;1.35;;;11.00;73.50;;;;;;2370262;53;21454;-77
2022/11/20 06:37:03;;;;;;;2.85;1.52;;;11.00;72.80;;;;;;2370425;53;20981;-75
2022/11/20 06:39:30;;;;;;;2.45;1.35;;;11.00;72.80;;;;;;2369847;53;21313;-74
2022/11/20 06:41:57;;;;;;;3.17;1.45;;;11.00;73.60;;;;;;2373971;53;20949;-78
2022/11/20 06:44:24;;;;;;;3.53;1.40;;;11.00;72.80;;;;;;2372338;53;20985;-76
2022/11/20 06:46:51;;;;;;;2.60;1.30;;;11.00;72.80;;;;;;2370630;53;21320;-74
2022/11/20 06:49:17;;;;;;;3.00;1.50;;;11.00;72.80;;;;;;2612893;52;21436;-77
2022/11/20 06:51:44;;;;;;;4.28;1.45;;;11.00;72.80;;;;;;2370819;53;20938;-76
2022/11/20 06:54:11;;;;;;;2.87;1.45;;;11.00;72.80;;;;;;2370242;53;20931;-75
2022/11/20 06:56:37;;;;;;;2.85;1.52;;;10.90;72.70;;;;;;2362298;53;21475;-77
2022/11/20 06:59:07;;;;;;;4.12;1.55;;;10.90;72.70;;;;;;2492696;52;20914;-77
2022/11/20 07:01:33;;;;;;;3.15;1.35;;;10.90;72.60;;;;;;2370110;53;20997;-76
2022/11/20 07:03:59;;;;;;;2.75;1.42;;;10.90;72.70;;;;;;2370362;53;20990;-74
2022/11/20 07:06:26;;;;;;;3.15;1.70;;;10.90;72.70;;;;;;2370195;53;20973;-78
2022/11/20 07:08:52;;;;;;;3.05;1.60;;;10.90;72.70;;;;;;2623376;52;20938;-78
2022/11/20 07:11:18;;;;;;;4.32;2.40;;;10.90;72.70;;;;;;2622917;52;21530;-74
2022/11/20 07:13:45;;;;;;;3.95;2.10;;;10.90;72.80;;;;;;2623569;52;21018;-74
2022/11/20 07:16:11;;;;;;;3.78;2.03;;;10.90;72.80;;;;;;2385715;52;20994;-76
2022/11/20 07:18:38;;;;;;;3.83;2.03;;;10.90;72.80;;;;;;2623449;52;20959;-79
2022/11/20 07:21:08;;;;;;;3.90;1.90;;;10.90;72.80;;;;;;2623684;52;20925;-77
2022/11/20 07:23:35;;;;;;;3.40;1.90;;;10.90;72.80;;;;;;2383642;52;21050;-76
2022/11/20 07:26:08;;;;;;;3.28;1.80;;;10.90;72.90;;;;;;2371052;53;20997;-77
2022/11/20 07:28:35;;;;;;;3.22;1.90;;;10.90;72.80;;;;;;2623450;52;20938;-79
2022/11/20 07:31:01;;;;;;;4.30;2.03;;;10.90;72.90;;;;;;2623949;52;22008;-77
2022/11/20 07:33:28;;;;;;;4.05;2.10;;;10.90;73.00;;;;;;2623219;52;21285;-75
2022/11/20 07:35:54;;;;;;;4.30;2.30;;;10.90;73.00;;;;;;2370968;53;20978;-77
2022/11/20 07:38:21;;;;;;;4.32;2.15;;;10.90;73.00;;;;;;2565645;52;20935;-77
2022/11/20 07:40:47;;;;;;;3.95;2.20;;;10.90;73.00;;;;;;2371219;53;21243;-78
2022/11/20 07:43:14;;;;;;;3.70;2.03;;;10.90;73.00;;;;;;2434214;52;20981;-76
2022/11/20 07:45:40;;;;;;;3.97;1.85;;;10.90;73.10;;;;;;2371190;53;21005;-76
2022/11/20 07:48:07;;;;;;;3.60;2.00;;;10.90;73.10;;;;;;2433338;52;20930;-76
2022/11/20 07:50:33;;;;;;;3.58;1.90;;;10.90;73.10;;;;;;2371031;53;20962;-74
2022/11/20 07:53:03;;;;;;;4.20;2.37;;;10.90;73.10;;;;;;2602955;52;20977;-75
2022/11/20 07:55:30;;;;;;;3.55;2.00;;;11.00;73.10;;;;;;2370359;53;21447;-77
2022/11/20 07:57:57;;;;;;;4.20;2.08;;;11.00;73.20;;;;;;2411654;52;21408;-77
2022/11/20 08:00:23;;;;;;;3.40;1.90;;;11.00;73.20;;;;;;2613022;52;20942;-76
2022/11/20 08:02:50;;;;;;;4.35;2.05;;;11.00;73.20;;;;;;2370608;53;21549;-74
2022/11/20 08:05:16;;;;;;;3.70;1.92;;;11.00;73.20;;;;;;2623500;52;20930;-76
2022/11/20 08:07:43;;;;;;;2.87;1.65;;;11.00;73.20;;;;;;2623888;52;21004;-76
2022/11/20 08:10:11;;;;;;;4.95;2.30;;;11.00;73.20;;;;;;2369315;53;21534;-75
2022/11/20 08:15:35;;;;;;;3.83;1.92;;;11.00;73.10;;;;;;2370321;53;21096;-77
2022/11/20 08:18:06;;;;;;;3.67;2.03;;;11.00;73.20;;;;;;2370242;53;20990;-75
2022/11/20 08:21:03;;;;;;;3.35;1.60;;;11.00;73.20;;;;;;2480466;52;21018;-78
2022/11/20 08:23:30;;;;;;;3.87;1.90;;;11.00;73.20;;;;;;2488124;52;21387;-77
2022/11/20 08:25:57;;;;;;;3.92;1.67;;;11.00;73.30;;;;;;2371296;53;20914;-76
2022/11/20 08:28:23;;;;;;;3.10;1.80;;;11.00;73.20;;;;;;2457800;52;21010;-77
2022/11/20 08:30:57;;;;;;;3.92;1.83;;;11.00;73.20;;;;;;2372880;53;21390;-76
2022/11/20 08:33:23;;;;;;;3.42;1.98;;;11.00;73.20;;;;;;2515449;52;20926;-80
2022/11/20 08:35:49;;;;;;;3.30;1.60;;;11.00;73.20;;;;;;2371623;53;20974;-76
2022/11/20 08:38:16;;;;;;;3.22;1.60;;;11.00;73.30;;;;;;2624477;52;20934;-78
2022/11/20 08:41:23;;;;;;;3.50;1.87;;;11.10;73.40;;;;;;2443569;52;20962;-79
2022/11/20 08:43:54;;;;;;;3.83;1.70;;;11.10;73.40;;;;;;2413117;52;20918;-79
2022/11/20 08:46:20;;;;;;;2.92;1.58;;;11.10;73.30;;;;;;2373034;53;21004;-74
2022/11/20 08:48:47;;;;;;;3.95;1.90;;;11.10;73.30;;;;;;2410715;53;21808;-77
2022/11/20 08:51:14;;;;;;;3.97;2.15;;;11.10;73.40;;;;;;2372365;53;21006;-75
2022/11/20 08:53:41;;;;;;;4.50;2.53;;;11.10;73.40;;;;;;2370802;53;21663;-78
2022/11/20 08:56:07;;;;;;;4.68;2.70;;;11.10;73.40;;;;;;2433779;52;20946;-78
2022/11/20 08:58:35;;;;;;;3.47;2.20;;;11.10;73.40;;;;;;2623125;52;20989;-75
2022/11/20 09:01:14;;;;;;;4.05;2.12;;;11.10;73.40;;;;;;2383668;52;21089;-75
2022/11/20 09:03:41;;;;;;;3.70;2.08;;;11.10;73.40;;;;;;2370830;53;21451;-78
2022/11/20 09:06:09;;;;;;;3.55;1.95;;;11.20;73.50;;;;;;2370393;53;20922;-78
2022/11/20 09:08:36;;;;;;;3.33;1.70;;;11.20;73.50;;;;;;2400329;52;21927;-76
2022/11/20 09:11:04;;;;;;;5.55;2.40;;;11.20;73.40;;;;;;2369889;53;20938;-80
2022/11/20 09:13:32;;;;;;;4.07;1.73;;;11.20;73.40;;;;;;2372480;52;20982;-77
2022/11/20 09:15:59;;;;;;;7.32;1.80;;;11.20;73.40;;;;;;2397566;52;20974;-75
2022/11/20 09:18:28;;;;;;;4.90;1.87;;;11.20;73.40;;;;;;2452838;52;20942;-74
2022/11/20 09:21:00;;;;;;;5.10;2.08;;;11.20;73.40;;;;;;2562044;52;20986;-78
2022/11/20 09:23:28;;;;;;;3.70;1.90;;;11.20;73.30;;;;;;2453921;52;20926;-78
2022/11/20 09:25:55;;;;;;;4.53;1.85;;;11.20;73.30;;;;;;2371145;53;20985;-76
2022/11/20 09:28:22;;;;;;;4.72;2.15;;;11.20;73.30;;;;;;2409838;52;20990;-76
2022/11/20 09:30:48;;;;;;;3.65;1.95;;;11.20;73.40;;;;;;2371505;53;20982;-75
2022/11/20 09:33:15;;;;;;;4.22;2.42;;;11.20;73.40;;;;;;2394183;52;21058;-75
2022/11/20 09:35:43;;;;;;;3.50;1.95;;;11.20;73.50;;;;;;2370873;53;20966;-75
2022/11/20 09:38:10;;;;;;;5.62;2.25;;;11.20;73.40;;;;;;2376142;52;21017;-77
2022/11/20 09:40:38;;;;;;;3.62;2.12;;;11.30;73.50;;;;;;2370772;53;21578;-78
2022/11/20 09:43:57;;;;;;;4.90;2.40;;;11.30;73.50;;;;;;2417711;52;20997;-78
2022/11/20 09:46:35;;;;;;;3.30;1.67;;;11.30;72.90;;;;;;2371085;53;21470;-76
2022/11/20 09:49:30;;;;;;;3.75;1.70;;;11.30;73.50;;;;;;2575808;52;21384;-76
2022/11/20 09:52:33;;;;;;;5.18;1.70;;;11.30;73.30;;;;;;2371129;53;21277;-76
2022/11/20 09:55:01;;;;;;;5.32;1.75;;;11.30;73.50;;;;;;2513505;52;21009;-74
2022/11/20 09:57:34;;;;;;;3.03;1.60;;;11.40;73.90;;;;;;2370598;53;21617;-74
2022/11/20 10:00:00;;;;;;;2.95;1.50;;;11.40;74.00;;;;;;2623831;52;20950;-77
2022/11/20 10:04:04;;;;;;;3.47;2.00;;;11.40;74.10;;;;;;2621673;52;20930;-75
2022/11/20 10:06:33;;;;;;;2.95;1.48;;;11.40;74.10;;;;;;2399991;52;21517;-78
2022/11/20 10:10:02;;;;;;;6.30;1.52;;;11.40;74.10;;;;;;2369845;53;21317;-77
2022/11/20 10:12:45;;;;;;;3.97;1.25;;;11.50;74.20;;;;;;2370683;53;20922;-77
2022/11/20 10:16:33;;;;;;;2.75;1.45;;;11.60;74.20;;;;;;2483632;52;20954;-78
2022/11/20 10:22:55;;;;;;;2.90;1.23;;;11.60;74.00;;;;;;2611330;52;21048;-79
2022/11/20 10:28:13;;;;;;;2.42;1.08;;;11.70;73.70;;;;;;2371269;53;21017;-76
2022/11/20 10:30:43;;;;;;;3.40;1.40;;;11.80;74.30;;;;;;2370932;53;21407;-74
2022/11/20 10:33:23;;;;;;;3.80;1.65;;;11.80;74.40;;;;;;2371318;53;20926;-75
2022/11/20 10:36:46;;;;;;;3.20;1.35;;;11.90;74.20;;;;;;2553425;52;21844;-76
2022/11/20 10:39:18;;;;;;;4.03;1.47;;;11.90;74.20;;;;;;2371159;53;21430;-75
2022/11/20 10:41:47;;;;;;;3.35;1.27;;;11.90;74.40;;;;;;2623758;52;21257;-77
2022/11/20 10:47:17;;;;;;;2.62;1.20;;;12.00;74.30;;;;;;2409109;52;20982;-77
2022/11/20 10:49:46;;;;;;;3.40;1.37;;;12.10;74.50;;;;;;2623850;52;20950;-76
2022/11/20 10:53:45;;;;;;;3.62;1.20;;;12.10;74.40;;;;;;2371000;53;20989;-76
2022/11/20 10:56:39;;;;;;;2.85;1.10;;;12.20;73.50;;;;;;2370859;53;20917;-77
2022/11/20 11:00:36;;;;;;;2.55;1.08;;;12.20;74.20;;;;;;2519706;52;20982;-76
2022/11/20 11:03:03;;;;;;;3.25;1.30;;;12.30;73.20;;;;;;2622610;52;21467;-77
2022/11/20 11:13:48;;;;;;;3.00;1.20;;;12.30;74.10;;;;;;2523658;52;21451;-79
2022/11/20 11:16:33;;;;;;;2.00;0.73;;;12.40;72.90;;;;;;2370397;53;20966;-76
2022/11/20 11:19:33;;;;;;;3.40;1.10;;;12.50;73.30;;;;;;2370380;53;20930;-75
2022/11/20 11:21:59;;;;;;;2.85;1.02;;;12.50;73.30;;;;;;2521476;52;20938;-76
2022/11/20 11:24:27;;;;;;;2.65;1.17;;;12.40;74.10;;;;;;2369573;53;21241;-76
2022/11/20 11:27:13;;;;;;;2.67;1.30;;;12.50;74.30;;;;;;2372227;53;21007;-74
2022/11/20 11:29:42;;;;;;;3.10;1.12;;;12.50;74.30;;;;;;2402194;52;20947;-75
2022/11/20 11:32:17;;;;;;;2.62;1.15;;;12.50;74.40;;;;;;2428281;52;20995;-75
2022/11/20 11:34:44;;;;;;;2.25;1.10;;;12.50;74.00;;;;;;2614239;52;21383;-74
2022/11/20 11:37:17;;;;;;;5.15;1.48;;;12.50;74.20;;;;;;2622609;52;20929;-75
2022/11/20 11:39:44;;;;;;;3.22;1.35;;;12.60;73.80;;;;;;2623335;52;20903;-74
2022/11/20 11:42:12;;;;;;;2.28;0.90;;;12.60;73.90;;;;;;2371725;53;20923;-75
2022/11/20 11:47:48;;;;;;;2.17;0.90;;;12.60;73.40;;;;;;2370668;53;21739;-75
2022/11/20 11:50:27;;;;;;;3.60;1.10;;;12.60;72.90;;;;;;2470492;52;20961;-75
2022/11/20 11:53:09;;;;;;;3.10;1.42;;;12.70;73.10;;;;;;2371104;53;20954;-74
2022/11/20 12:00:44;;;;;;;2.35;0.90;;;12.60;73.00;;;;;;2442349;52;21350;-74
2022/11/20 12:03:21;;;;;;;2.08;0.98;;;12.70;72.30;;;;;;2624088;52;21201;-75
2022/11/20 12:05:58;;;;;;;3.12;1.02;;;12.70;72.80;;;;;;2513865;52;21010;-74
2022/11/20 12:09:16;;;;;;;2.60;1.40;;;12.70;73.10;;;;;;2370401;53;20979;-74
2022/11/20 12:11:45;;;;;;;3.10;1.08;;;12.70;73.00;;;;;;2562606;52;20990;-74
2022/11/20 12:14:45;;;;;;;3.72;1.45;;;12.70;73.30;;;;;;2371091;53;21209;-75
2022/11/20 12:17:13;;;;;;;4.68;1.80;;;12.70;72.50;;;;;;2530132;52;20934;-75
2022/11/20 12:19:39;;;;;;;3.55;2.10;;;12.70;73.40;;;;;;2623359;52;20907;-75
2022/11/20 12:24:10;;;;;;;3.08;1.70;;;12.70;73.40;;;;;;2488375;52;20974;-75
2022/11/20 12:33:33;;;;;;;3.05;1.17;;;12.70;72.30;;;;;;2381561;52;20938;-75
2022/11/20 12:39:33;;;;;;;1.85;0.82;;;12.80;72.50;;;;;;2447169;52;21276;-75
2022/11/20 12:46:42;;;;;;;2.87;1.02;;;12.80;72.20;;;;;;2623973;52;21383;-75
2022/11/20 12:52:10;;;;;;;4.30;1.60;;;12.80;72.70;;;;;;2484277;52;20951;-75
2022/11/20 12:54:46;;;;;;;1.80;0.90;;;12.80;73.10;;;;;;2371120;53;21014;-75
2022/11/20 13:00:34;;;;;;;2.12;1.10;;;12.80;73.10;;;;;;2371540;53;20974;-75
2022/11/20 13:03:12;;;;;;;3.30;1.40;;;12.80;72.40;;;;;;2623629;52;21006;-75
2022/11/20 13:06:24;;;;;;;12.85;7.85;;;12.90;73.10;;;;;;2537882;52;21296;-74
2022/11/20 13:08:56;;;;;;;6.75;4.55;;;12.80;71.80;;;;;;2371050;53;20954;-75
2022/11/20 13:11:32;;;;;;;4.50;2.62;;;12.80;73.10;;;;;;2362837;53;20906;-75
2022/11/20 13:14:28;;;;;;;3.97;1.80;;;12.90;73.10;;;;;;2623230;52;20931;-75
2022/11/20 13:17:22;;;;;;;5.05;2.20;;;12.90;72.60;;;;;;2614297;52;21299;-74
2022/11/20 13:19:58;;;;;;;5.32;2.00;;;12.90;72.80;;;;;;2444402;52;21846;-74
2022/11/20 13:22:45;;;;;;;3.90;1.40;;;12.90;72.90;;;;;;2370905;53;21499;-76
2022/11/20 13:25:29;;;;;;;3.00;1.25;;;12.90;72.50;;;;;;2371349;53;20930;-73
2022/11/20 13:27:58;;;;;;;4.20;1.85;;;13.00;72.60;;;;;;2372005;53;20965;-74
2022/11/20 13:30:26;;;;;;;3.28;1.52;;;12.90;73.00;;;;;;2365897;53;20945;-75
2022/11/20 13:33:03;;;;;;;4.10;2.40;;;12.90;72.90;;;;;;2549342;52;20920;-75
2022/11/20 13:35:34;;;;;;;3.80;1.80;;;13.00;72.70;;;;;;2623265;52;20926;-74
2022/11/20 13:38:13;;;;;;;3.80;1.60;;;12.90;72.40;;;;;;2371698;53;21743;-75
2022/11/20 13:40:55;;;;;;;4.75;1.85;;;13.00;72.60;;;;;;2590537;52;20952;-75
2022/11/20 13:43:40;;;;;;;4.68;1.80;;;13.00;72.10;;;;;;2343364;53;20936;-74
2022/11/20 13:46:08;;;;;;;4.90;1.83;;;13.00;71.60;;;;;;2500390;52;21004;-75
2022/11/20 13:48:43;;;;;;;3.65;1.40;;;13.00;72.40;;;;;;2351546;53;21000;-74
2022/11/20 13:51:58;;;;;;;2.83;1.40;;;13.00;71.90;;;;;;2348788;54;21261;-75
2022/11/20 13:54:56;;;;;;;2.28;0.80;;;12.90;70.80;;;;;;2342349;54;20925;-75
2022/11/20 14:00:28;;;;;;;2.35;0.90;;;12.90;71.70;;;;;;2382372;52;21789;-75
2022/11/20 14:03:15;;;;;;;2.08;0.95;;;12.90;70.50;;;;;;2343507;53;21012;-75
2022/11/20 14:05:58;;;;;;;2.53;1.00;;;12.90;71.50;;;;;;2389903;53;20925;-74